Homestead ARB Airport
KHST : now visible

Airfield :











YOU CAN JOIN US ON...

 
LOGIN :

Register | Disclaimer

   EN    FR    IT 

 









Legend :    VFR   Marginal VFR   IFR   Intensive IFR   Very Intensive IFR
Visi :
Ceiling :
>= 8 km
>= 3000ft
5 to 8 km
1000 to 3000 ft
1500m to 5 km
500 to 1000 ft
800 to 1500m
200 to 500 ft
< 800m
< 200 ft
Symbols :   Thunderstorms  Fog  Heavy snow  Heavy precipitations  Wind > 20 kt






- Airport Elevation : 5 ft


KHST - Homestead ARB

CURRENT METAR :
  • 301756Z 23011KT 10SM FEW033 29/22 A2990 RMK AO2A SLP128 T02850220 10290 20210 57021 $

EXPIRED METARs :
  • 301656Z 21011G18KT 10SM SCT035 29/22 A2992 RMK AO2A SLP135 T02890219 $
  • 301556Z 22011G21KT 10SM CLR 28/20 A2995 RMK AO2A SLP145 $

TAF TAF KHST
Valid from the 30 at 12:00 until the 01 at 18:00 UTC


301200Z 3012/0118 21006KT 9999 FEW025 SCT070 QNH2993INS
BECMG 3014/3015 22012KT 9999 SCT030 BKN045 QNH2986INS
BECMG 3021/3022 22012G18KT 9999 -SHRA VCTS BKN025CB OVC040 QNH2985INS
BECMG 0101/0102 29010KT 9999 NSW SCT025 OVC040 QNH2993INS
BECMG 0108/0109 34010KT 9999 SCT025 QNH3002INS TX28/3017Z TN15/0111Z
KZMA FIR / North America



MET'MAP, your aeronautical weather chart ! - Copyright ORBIFLY December 2007 - Disclaimer

ORBIFLY MET'MAP TEAM :

Programming & Development : Alexandra Zaïnal
Concept & original design : Baudouin d'Aumeries
Assistance for programming : Marc-Olivier Méhu
Technical & hardware support : Manuel Goepfert

Contact : metmap@orbifly.com




SOURCES & CREDITS :

   NOAA       Earth
Advisory